sensor_id;sensor_type;location;lat;lon;timestamp;P1;durP1;ratioP1;P2;durP2;ratioP2
43435;SDS011;36399;51.444;-2.018;2023-01-19T00:01:24;17.93;;;8.23;;
43435;SDS011;36399;51.444;-2.018;2023-01-19T00:03:51;14.83;;;7.60;;
43435;SDS011;36399;51.444;-2.018;2023-01-19T00:06:17;12.90;;;8.43;;
43435;SDS011;36399;51.444;-2.018;2023-01-19T00:08:43;20.50;;;7.83;;
43435;SDS011;36399;51.444;-2.018;2023-01-19T00:11:11;19.47;;;8.03;;
43435;SDS011;36399;51.444;-2.018;2023-01-19T00:13:37;14.30;;;8.00;;
43435;SDS011;36399;51.444;-2.018;2023-01-19T00:16:05;17.30;;;8.70;;
43435;SDS011;36399;51.444;-2.018;2023-01-19T00:18:31;16.57;;;8.63;;
43435;SDS011;36399;51.444;-2.018;2023-01-19T00:20:57;23.80;;;11.30;;
43435;SDS011;36399;51.444;-2.018;2023-01-19T00:23:23;24.33;;;10.47;;
43435;SDS011;36399;51.444;-2.018;2023-01-19T00:25:50;27.43;;;12.20;;
43435;SDS011;36399;51.444;-2.018;2023-01-19T00:28:16;31.83;;;13.17;;
43435;SDS011;36399;51.444;-2.018;2023-01-19T00:30:43;27.47;;;11.97;;
43435;SDS011;36399;51.444;-2.018;2023-01-19T00:33:10;24.40;;;12.07;;
43435;SDS011;36399;51.444;-2.018;2023-01-19T00:35:39;19.47;;;11.30;;
43435;SDS011;36399;51.444;-2.018;2023-01-19T00:38:07;27.92;;;11.90;;
43435;SDS011;36399;51.444;-2.018;2023-01-19T00:40:33;32.83;;;14.13;;
43435;SDS011;36399;51.444;-2.018;2023-01-19T00:42:59;28.87;;;14.70;;
43435;SDS011;36399;51.444;-2.018;2023-01-19T00:45:25;30.90;;;13.98;;
43435;SDS011;36399;51.444;-2.018;2023-01-19T00:47:51;26.47;;;15.60;;
43435;SDS011;36399;51.444;-2.018;2023-01-19T00:50:22;31.52;;;15.30;;
43435;SDS011;36399;51.444;-2.018;2023-01-19T00:52:50;26.98;;;14.45;;
43435;SDS011;36399;51.444;-2.018;2023-01-19T00:55:17;29.50;;;15.05;;
43435;SDS011;36399;51.444;-2.018;2023-01-19T00:57:43;29.70;;;15.65;;
43435;SDS011;36399;51.444;-2.018;2023-01-19T01:00:11;29.60;;;14.13;;
43435;SDS011;36399;51.444;-2.018;2023-01-19T01:02:40;32.07;;;15.43;;
43435;SDS011;36399;51.444;-2.018;2023-01-19T01:05:08;28.13;;;13.60;;
43435;SDS011;36399;51.444;-2.018;2023-01-19T01:07:35;30.35;;;14.75;;
43435;SDS011;36399;51.444;-2.018;2023-01-19T01:10:07;24.98;;;13.88;;
43435;SDS011;36399;51.444;-2.018;2023-01-19T01:12:35;29.42;;;14.40;;
43435;SDS011;36399;51.444;-2.018;2023-01-19T01:15:03;31.60;;;14.93;;
43435;SDS011;36399;51.444;-2.018;2023-01-19T01:17:30;28.40;;;14.90;;
43435;SDS011;36399;51.444;-2.018;2023-01-19T01:19:56;23.47;;;13.10;;
43435;SDS011;36399;51.444;-2.018;2023-01-19T01:22:22;26.60;;;14.30;;
43435;SDS011;36399;51.444;-2.018;2023-01-19T01:24:48;26.53;;;13.60;;
43435;SDS011;36399;51.444;-2.018;2023-01-19T01:27:14;24.80;;;12.30;;
43435;SDS011;36399;51.444;-2.018;2023-01-19T01:29:41;23.20;;;13.13;;
43435;SDS011;36399;51.444;-2.018;2023-01-19T01:32:12;25.02;;;13.02;;
43435;SDS011;36399;51.444;-2.018;2023-01-19T01:34:38;21.75;;;11.60;;
43435;SDS011;36399;51.444;-2.018;2023-01-19T01:37:05;25.92;;;12.07;;
43435;SDS011;36399;51.444;-2.018;2023-01-19T01:39:34;23.00;;;11.50;;
43435;SDS011;36399;51.444;-2.018;2023-01-19T01:42:01;17.42;;;10.60;;
43435;SDS011;36399;51.444;-2.018;2023-01-19T01:47:19;20.33;;;11.18;;
43435;SDS011;36399;51.444;-2.018;2023-01-19T01:50:12;19.88;;;11.38;;
43435;SDS011;36399;51.444;-2.018;2023-01-19T01:52:48;20.33;;;10.63;;
43435;SDS011;36399;51.444;-2.018;2023-01-19T01:55:17;19.67;;;10.95;;
43435;SDS011;36399;51.444;-2.018;2023-01-19T01:57:47;19.30;;;9.98;;
43435;SDS011;36399;51.444;-2.018;2023-01-19T02:00:16;22.70;;;11.10;;
43435;SDS011;36399;51.444;-2.018;2023-01-19T02:02:42;27.70;;;12.20;;
43435;SDS011;36399;51.444;-2.018;2023-01-19T02:05:31;21.63;;;12.52;;
43435;SDS011;36399;51.444;-2.018;2023-01-19T02:10:50;27.65;;;12.35;;
43435;SDS011;36399;51.444;-2.018;2023-01-19T02:13:37;25.10;;;10.57;;
43435;SDS011;36399;51.444;-2.018;2023-01-19T02:16:08;26.88;;;11.75;;
43435;SDS011;36399;51.444;-2.018;2023-01-19T02:18:36;21.23;;;10.68;;
43435;SDS011;36399;51.444;-2.018;2023-01-19T02:26:17;27.52;;;11.30;;
43435;SDS011;36399;51.444;-2.018;2023-01-19T02:28:47;23.90;;;9.77;;
43435;SDS011;36399;51.444;-2.018;2023-01-19T02:31:16;19.95;;;8.82;;
43435;SDS011;36399;51.444;-2.018;2023-01-19T02:33:42;20.85;;;9.50;;
43435;SDS011;36399;51.444;-2.018;2023-01-19T02:36:09;18.63;;;10.23;;
43435;SDS011;36399;51.444;-2.018;2023-01-19T02:38:39;18.55;;;9.23;;
43435;SDS011;36399;51.444;-2.018;2023-01-19T02:41:08;16.23;;;10.15;;
43435;SDS011;36399;51.444;-2.018;2023-01-19T02:43:37;16.80;;;9.57;;
43435;SDS011;36399;51.444;-2.018;2023-01-19T02:46:05;15.20;;;8.55;;
43435;SDS011;36399;51.444;-2.018;2023-01-19T02:48:31;22.90;;;9.13;;
43435;SDS011;36399;51.444;-2.018;2023-01-19T02:50:58;16.77;;;9.10;;
43435;SDS011;36399;51.444;-2.018;2023-01-19T02:59:24;14.73;;;8.65;;
43435;SDS011;36399;51.444;-2.018;2023-01-19T03:07:10;21.40;;;10.23;;
43435;SDS011;36399;51.444;-2.018;2023-01-19T03:09:46;19.60;;;9.65;;
43435;SDS011;36399;51.444;-2.018;2023-01-19T03:15:14;20.30;;;8.63;;
43435;SDS011;36399;51.444;-2.018;2023-01-19T03:17:47;17.05;;;8.50;;
43435;SDS011;36399;51.444;-2.018;2023-01-19T03:20:15;17.42;;;8.38;;
43435;SDS011;36399;51.444;-2.018;2023-01-19T03:22:46;14.02;;;8.57;;
43435;SDS011;36399;51.444;-2.018;2023-01-19T03:25:15;15.50;;;7.47;;
43435;SDS011;36399;51.444;-2.018;2023-01-19T03:27:43;13.07;;;7.05;;
43435;SDS011;36399;51.444;-2.018;2023-01-19T03:30:20;14.43;;;7.65;;
43435;SDS011;36399;51.444;-2.018;2023-01-19T03:32:51;16.83;;;7.18;;
43435;SDS011;36399;51.444;-2.018;2023-01-19T03:35:21;14.75;;;7.68;;
43435;SDS011;36399;51.444;-2.018;2023-01-19T03:37:49;16.20;;;7.97;;
43435;SDS011;36399;51.444;-2.018;2023-01-19T03:40:19;15.80;;;8.73;;
43435;SDS011;36399;51.444;-2.018;2023-01-19T03:42:45;18.60;;;8.60;;
43435;SDS011;36399;51.444;-2.018;2023-01-19T03:45:14;19.60;;;9.50;;
43435;SDS011;36399;51.444;-2.018;2023-01-19T03:47:41;17.58;;;10.20;;
43435;SDS011;36399;51.444;-2.018;2023-01-19T03:50:08;21.70;;;10.52;;
43435;SDS011;36399;51.444;-2.018;2023-01-19T03:52:42;19.67;;;10.63;;
43435;SDS011;36399;51.444;-2.018;2023-01-19T03:55:09;17.47;;;9.93;;
43435;SDS011;36399;51.444;-2.018;2023-01-19T03:57:35;20.52;;;10.50;;
43435;SDS011;36399;51.444;-2.018;2023-01-19T04:00:02;17.70;;;10.00;;
43435;SDS011;36399;51.444;-2.018;2023-01-19T04:02:29;19.70;;;10.20;;
43435;SDS011;36399;51.444;-2.018;2023-01-19T04:04:55;19.97;;;10.00;;
43435;SDS011;36399;51.444;-2.018;2023-01-19T04:07:20;20.30;;;11.03;;
43435;SDS011;36399;51.444;-2.018;2023-01-19T04:09:46;19.37;;;10.37;;
43435;SDS011;36399;51.444;-2.018;2023-01-19T04:12:12;20.53;;;8.70;;
43435;SDS011;36399;51.444;-2.018;2023-01-19T04:14:38;20.73;;;9.13;;
43435;SDS011;36399;51.444;-2.018;2023-01-19T04:17:04;19.27;;;10.27;;
43435;SDS011;36399;51.444;-2.018;2023-01-19T04:19:30;19.77;;;9.63;;
43435;SDS011;36399;51.444;-2.018;2023-01-19T04:21:56;22.20;;;10.73;;
43435;SDS011;36399;51.444;-2.018;2023-01-19T04:24:22;25.38;;;11.13;;
43435;SDS011;36399;51.444;-2.018;2023-01-19T04:26:49;20.50;;;10.90;;
43435;SDS011;36399;51.444;-2.018;2023-01-19T04:29:16;19.88;;;9.63;;
43435;SDS011;36399;51.444;-2.018;2023-01-19T04:31:42;23.50;;;10.97;;
43435;SDS011;36399;51.444;-2.018;2023-01-19T04:34:08;18.43;;;9.80;;
43435;SDS011;36399;51.444;-2.018;2023-01-19T04:36:34;24.27;;;10.85;;
43435;SDS011;36399;51.444;-2.018;2023-01-19T04:39:00;21.50;;;10.67;;
43435;SDS011;36399;51.444;-2.018;2023-01-19T04:41:26;19.20;;;10.53;;
43435;SDS011;36399;51.444;-2.018;2023-01-19T04:43:52;19.00;;;10.30;;
43435;SDS011;36399;51.444;-2.018;2023-01-19T04:46:18;22.07;;;11.33;;
43435;SDS011;36399;51.444;-2.018;2023-01-19T04:48:44;20.83;;;9.90;;
43435;SDS011;36399;51.444;-2.018;2023-01-19T04:51:10;18.53;;;10.63;;
43435;SDS011;36399;51.444;-2.018;2023-01-19T04:53:36;19.97;;;11.43;;
43435;SDS011;36399;51.444;-2.018;2023-01-19T04:56:02;28.47;;;11.50;;
43435;SDS011;36399;51.444;-2.018;2023-01-19T04:58:28;22.75;;;10.13;;
43435;SDS011;36399;51.444;-2.018;2023-01-19T05:00:54;22.07;;;10.63;;
43435;SDS011;36399;51.444;-2.018;2023-01-19T05:03:20;21.83;;;10.93;;
43435;SDS011;36399;51.444;-2.018;2023-01-19T05:05:46;20.00;;;9.30;;
43435;SDS011;36399;51.444;-2.018;2023-01-19T05:08:12;24.10;;;10.13;;
43435;SDS011;36399;51.444;-2.018;2023-01-19T05:10:38;24.33;;;10.33;;
43435;SDS011;36399;51.444;-2.018;2023-01-19T05:13:03;21.00;;;9.00;;
43435;SDS011;36399;51.444;-2.018;2023-01-19T05:15:30;15.68;;;8.75;;
43435;SDS011;36399;51.444;-2.018;2023-01-19T05:17:56;23.80;;;10.90;;
43435;SDS011;36399;51.444;-2.018;2023-01-19T05:20:23;17.73;;;9.35;;
43435;SDS011;36399;51.444;-2.018;2023-01-19T05:22:50;19.10;;;9.52;;
43435;SDS011;36399;51.444;-2.018;2023-01-19T05:25:17;18.25;;;9.15;;
43435;SDS011;36399;51.444;-2.018;2023-01-19T05:27:43;19.33;;;9.90;;
43435;SDS011;36399;51.444;-2.018;2023-01-19T05:30:10;22.73;;;10.27;;
43435;SDS011;36399;51.444;-2.018;2023-01-19T05:32:37;23.58;;;11.32;;
43435;SDS011;36399;51.444;-2.018;2023-01-19T05:35:04;19.48;;;9.85;;
43435;SDS011;36399;51.444;-2.018;2023-01-19T05:37:30;19.88;;;9.35;;
43435;SDS011;36399;51.444;-2.018;2023-01-19T05:39:57;14.95;;;9.02;;
43435;SDS011;36399;51.444;-2.018;2023-01-19T05:42:23;21.20;;;11.00;;
43435;SDS011;36399;51.444;-2.018;2023-01-19T05:44:49;21.95;;;10.40;;
43435;SDS011;36399;51.444;-2.018;2023-01-19T05:47:15;22.60;;;11.03;;
43435;SDS011;36399;51.444;-2.018;2023-01-19T05:49:41;21.15;;;11.23;;
43435;SDS011;36399;51.444;-2.018;2023-01-19T05:52:07;17.60;;;9.03;;
43435;SDS011;36399;51.444;-2.018;2023-01-19T05:54:33;19.27;;;10.00;;
43435;SDS011;36399;51.444;-2.018;2023-01-19T05:56:59;21.67;;;10.03;;
43435;SDS011;36399;51.444;-2.018;2023-01-19T05:59:25;14.88;;;9.40;;
43435;SDS011;36399;51.444;-2.018;2023-01-19T06:01:51;19.40;;;9.70;;
43435;SDS011;36399;51.444;-2.018;2023-01-19T06:04:18;24.38;;;9.43;;
43435;SDS011;36399;51.444;-2.018;2023-01-19T06:06:48;26.58;;;11.35;;
43435;SDS011;36399;51.444;-2.018;2023-01-19T06:09:15;21.25;;;10.73;;
43435;SDS011;36399;51.444;-2.018;2023-01-19T06:11:45;21.45;;;10.18;;
43435;SDS011;36399;51.444;-2.018;2023-01-19T06:14:11;23.58;;;10.50;;
43435;SDS011;36399;51.444;-2.018;2023-01-19T06:16:37;20.55;;;9.68;;
43435;SDS011;36399;51.444;-2.018;2023-01-19T06:19:03;20.77;;;11.63;;
43435;SDS011;36399;51.444;-2.018;2023-01-19T06:21:30;26.27;;;12.63;;
43435;SDS011;36399;51.444;-2.018;2023-01-19T06:23:57;27.90;;;13.93;;
43435;SDS011;36399;51.444;-2.018;2023-01-19T06:26:23;39.43;;;13.77;;
43435;SDS011;36399;51.444;-2.018;2023-01-19T06:28:50;31.87;;;12.77;;
43435;SDS011;36399;51.444;-2.018;2023-01-19T06:31:16;36.30;;;13.63;;
43435;SDS011;36399;51.444;-2.018;2023-01-19T06:33:42;30.20;;;12.18;;
43435;SDS011;36399;51.444;-2.018;2023-01-19T06:36:08;24.43;;;11.73;;
43435;SDS011;36399;51.444;-2.018;2023-01-19T06:38:34;28.73;;;13.27;;
43435;SDS011;36399;51.444;-2.018;2023-01-19T06:41:00;26.77;;;11.67;;
43435;SDS011;36399;51.444;-2.018;2023-01-19T06:43:29;25.38;;;11.23;;
43435;SDS011;36399;51.444;-2.018;2023-01-19T06:45:56;20.67;;;11.10;;
43435;SDS011;36399;51.444;-2.018;2023-01-19T06:48:22;21.95;;;10.43;;
43435;SDS011;36399;51.444;-2.018;2023-01-19T06:50:48;21.17;;;10.73;;
43435;SDS011;36399;51.444;-2.018;2023-01-19T06:53:14;23.93;;;10.57;;
43435;SDS011;36399;51.444;-2.018;2023-01-19T06:55:42;23.25;;;9.68;;
43435;SDS011;36399;51.444;-2.018;2023-01-19T06:58:08;28.48;;;11.13;;
43435;SDS011;36399;51.444;-2.018;2023-01-19T07:00:34;18.38;;;9.45;;
43435;SDS011;36399;51.444;-2.018;2023-01-19T07:03:00;18.63;;;10.07;;
43435;SDS011;36399;51.444;-2.018;2023-01-19T07:05:26;25.33;;;11.00;;
43435;SDS011;36399;51.444;-2.018;2023-01-19T07:07:55;19.08;;;9.52;;
43435;SDS011;36399;51.444;-2.018;2023-01-19T07:10:21;15.18;;;8.35;;
43435;SDS011;36399;51.444;-2.018;2023-01-19T07:12:48;21.52;;;9.98;;
43435;SDS011;36399;51.444;-2.018;2023-01-19T07:15:15;16.88;;;8.30;;
43435;SDS011;36399;51.444;-2.018;2023-01-19T07:17:44;19.45;;;10.18;;
43435;SDS011;36399;51.444;-2.018;2023-01-19T07:20:10;21.83;;;10.50;;
43435;SDS011;36399;51.444;-2.018;2023-01-19T07:22:39;24.50;;;10.18;;
43435;SDS011;36399;51.444;-2.018;2023-01-19T07:25:06;24.95;;;11.02;;
43435;SDS011;36399;51.444;-2.018;2023-01-19T07:27:32;23.17;;;10.53;;
43435;SDS011;36399;51.444;-2.018;2023-01-19T07:29:58;27.07;;;12.20;;
43435;SDS011;36399;51.444;-2.018;2023-01-19T07:32:26;24.00;;;11.07;;
43435;SDS011;36399;51.444;-2.018;2023-01-19T07:34:52;21.02;;;10.10;;
43435;SDS011;36399;51.444;-2.018;2023-01-19T07:37:18;25.87;;;11.23;;
43435;SDS011;36399;51.444;-2.018;2023-01-19T07:39:44;20.20;;;10.57;;
43435;SDS011;36399;51.444;-2.018;2023-01-19T07:42:10;18.60;;;9.45;;
43435;SDS011;36399;51.444;-2.018;2023-01-19T07:44:37;20.70;;;8.93;;
43435;SDS011;36399;51.444;-2.018;2023-01-19T07:47:03;15.67;;;7.40;;
43435;SDS011;36399;51.444;-2.018;2023-01-19T07:49:32;12.43;;;6.60;;
43435;SDS011;36399;51.444;-2.018;2023-01-19T07:51:58;20.67;;;8.80;;
43435;SDS011;36399;51.444;-2.018;2023-01-19T07:54:24;11.63;;;5.30;;
43435;SDS011;36399;51.444;-2.018;2023-01-19T07:56:52;18.30;;;8.43;;
43435;SDS011;36399;51.444;-2.018;2023-01-19T07:59:19;16.70;;;8.37;;
43435;SDS011;36399;51.444;-2.018;2023-01-19T08:01:45;22.67;;;9.50;;
43435;SDS011;36399;51.444;-2.018;2023-01-19T08:04:11;18.63;;;9.33;;
43435;SDS011;36399;51.444;-2.018;2023-01-19T08:06:38;12.93;;;7.33;;
43435;SDS011;36399;51.444;-2.018;2023-01-19T08:09:05;13.20;;;6.73;;
43435;SDS011;36399;51.444;-2.018;2023-01-19T08:11:32;16.60;;;9.07;;
43435;SDS011;36399;51.444;-2.018;2023-01-19T08:13:58;17.57;;;8.10;;
43435;SDS011;36399;51.444;-2.018;2023-01-19T08:16:25;23.73;;;10.47;;
43435;SDS011;36399;51.444;-2.018;2023-01-19T08:18:52;21.13;;;9.67;;
43435;SDS011;36399;51.444;-2.018;2023-01-19T08:21:18;25.90;;;10.60;;
43435;SDS011;36399;51.444;-2.018;2023-01-19T08:23:55;26.10;;;11.47;;
43435;SDS011;36399;51.444;-2.018;2023-01-19T08:26:32;18.97;;;8.93;;
43435;SDS011;36399;51.444;-2.018;2023-01-19T08:29:00;24.47;;;10.40;;
43435;SDS011;36399;51.444;-2.018;2023-01-19T08:31:28;21.00;;;9.03;;
43435;SDS011;36399;51.444;-2.018;2023-01-19T08:33:54;21.40;;;10.77;;
43435;SDS011;36399;51.444;-2.018;2023-01-19T08:36:20;25.97;;;10.43;;
43435;SDS011;36399;51.444;-2.018;2023-01-19T08:38:47;24.90;;;10.97;;
43435;SDS011;36399;51.444;-2.018;2023-01-19T08:41:13;22.53;;;10.33;;
43435;SDS011;36399;51.444;-2.018;2023-01-19T08:43:41;21.13;;;10.63;;
43435;SDS011;36399;51.444;-2.018;2023-01-19T08:46:07;25.30;;;12.10;;
43435;SDS011;36399;51.444;-2.018;2023-01-19T08:48:33;27.03;;;12.97;;
43435;SDS011;36399;51.444;-2.018;2023-01-19T08:51:00;19.37;;;11.07;;
43435;SDS011;36399;51.444;-2.018;2023-01-19T08:53:26;27.10;;;12.57;;
43435;SDS011;36399;51.444;-2.018;2023-01-19T08:55:55;23.13;;;12.30;;
43435;SDS011;36399;51.444;-2.018;2023-01-19T08:58:24;25.67;;;12.60;;
43435;SDS011;36399;51.444;-2.018;2023-01-19T09:00:50;31.47;;;14.73;;
43435;SDS011;36399;51.444;-2.018;2023-01-19T09:03:17;30.53;;;13.77;;
43435;SDS011;36399;51.444;-2.018;2023-01-19T09:05:45;29.80;;;15.67;;
43435;SDS011;36399;51.444;-2.018;2023-01-19T09:08:11;32.37;;;16.87;;
43435;SDS011;36399;51.444;-2.018;2023-01-19T09:10:38;33.17;;;16.37;;
43435;SDS011;36399;51.444;-2.018;2023-01-19T09:13:10;40.37;;;18.10;;
43435;SDS011;36399;51.444;-2.018;2023-01-19T09:15:37;34.83;;;19.03;;
43435;SDS011;36399;51.444;-2.018;2023-01-19T09:18:05;32.30;;;15.90;;
43435;SDS011;36399;51.444;-2.018;2023-01-19T09:20:32;34.50;;;14.53;;
43435;SDS011;36399;51.444;-2.018;2023-01-19T09:23:00;38.23;;;16.30;;
43435;SDS011;36399;51.444;-2.018;2023-01-19T09:25:26;30.60;;;14.43;;
43435;SDS011;36399;51.444;-2.018;2023-01-19T09:27:52;30.67;;;14.10;;
43435;SDS011;36399;51.444;-2.018;2023-01-19T09:30:18;32.40;;;14.63;;
43435;SDS011;36399;51.444;-2.018;2023-01-19T09:32:44;30.67;;;14.37;;
43435;SDS011;36399;51.444;-2.018;2023-01-19T09:35:10;34.30;;;15.63;;
43435;SDS011;36399;51.444;-2.018;2023-01-19T09:37:37;36.83;;;15.83;;
43435;SDS011;36399;51.444;-2.018;2023-01-19T09:40:06;27.70;;;13.10;;
43435;SDS011;36399;51.444;-2.018;2023-01-19T09:42:46;23.17;;;12.63;;
43435;SDS011;36399;51.444;-2.018;2023-01-19T09:51:09;31.23;;;14.63;;
43435;SDS011;36399;51.444;-2.018;2023-01-19T09:56:16;25.03;;;13.13;;
43435;SDS011;36399;51.444;-2.018;2023-01-19T09:58:46;24.13;;;13.27;;
43435;SDS011;36399;51.444;-2.018;2023-01-19T10:04:16;22.00;;;13.07;;
43435;SDS011;36399;51.444;-2.018;2023-01-19T10:06:45;21.83;;;12.47;;
43435;SDS011;36399;51.444;-2.018;2023-01-19T10:09:18;15.93;;;8.73;;
43435;SDS011;36399;51.444;-2.018;2023-01-19T10:12:16;15.43;;;9.17;;
43435;SDS011;36399;51.444;-2.018;2023-01-19T10:18:10;12.20;;;6.43;;
43435;SDS011;36399;51.444;-2.018;2023-01-19T10:21:08;11.13;;;6.57;;
43435;SDS011;36399;51.444;-2.018;2023-01-19T10:26:15;10.13;;;6.57;;
43435;SDS011;36399;51.444;-2.018;2023-01-19T10:28:43;13.17;;;7.13;;
43435;SDS011;36399;51.444;-2.018;2023-01-19T10:31:11;10.53;;;6.40;;
43435;SDS011;36399;51.444;-2.018;2023-01-19T10:33:38;11.03;;;6.67;;
43435;SDS011;36399;51.444;-2.018;2023-01-19T10:36:05;8.03;;;4.97;;
43435;SDS011;36399;51.444;-2.018;2023-01-19T10:38:39;9.82;;;5.43;;
43435;SDS011;36399;51.444;-2.018;2023-01-19T10:41:06;8.48;;;4.63;;
43435;SDS011;36399;51.444;-2.018;2023-01-19T10:43:40;11.27;;;6.18;;
43435;SDS011;36399;51.444;-2.018;2023-01-19T10:48:41;9.15;;;5.82;;
43435;SDS011;36399;51.444;-2.018;2023-01-19T10:51:08;10.18;;;6.07;;
43435;SDS011;36399;51.444;-2.018;2023-01-19T10:53:35;8.38;;;5.97;;
43435;SDS011;36399;51.444;-2.018;2023-01-19T10:56:15;10.43;;;6.45;;
43435;SDS011;36399;51.444;-2.018;2023-01-19T10:58:45;8.27;;;4.50;;
43435;SDS011;36399;51.444;-2.018;2023-01-19T11:01:13;7.38;;;4.07;;
43435;SDS011;36399;51.444;-2.018;2023-01-19T11:03:42;7.50;;;4.70;;
43435;SDS011;36399;51.444;-2.018;2023-01-19T11:08:41;9.23;;;4.65;;
43435;SDS011;36399;51.444;-2.018;2023-01-19T11:11:08;7.13;;;3.85;;
43435;SDS011;36399;51.444;-2.018;2023-01-19T11:13:34;12.77;;;7.50;;
43435;SDS011;36399;51.444;-2.018;2023-01-19T11:18:33;6.13;;;3.25;;
43435;SDS011;36399;51.444;-2.018;2023-01-19T11:21:02;8.05;;;3.90;;
43435;SDS011;36399;51.444;-2.018;2023-01-19T11:23:32;8.45;;;3.10;;
43435;SDS011;36399;51.444;-2.018;2023-01-19T11:26:00;6.60;;;3.35;;
43435;SDS011;36399;51.444;-2.018;2023-01-19T11:28:36;5.95;;;3.25;;
43435;SDS011;36399;51.444;-2.018;2023-01-19T11:38:51;5.82;;;3.22;;
43435;SDS011;36399;51.444;-2.018;2023-01-19T11:43:54;7.43;;;2.92;;
43435;SDS011;36399;51.444;-2.018;2023-01-19T11:46:23;7.72;;;3.38;;
43435;SDS011;36399;51.444;-2.018;2023-01-19T11:49:06;5.70;;;2.97;;
43435;SDS011;36399;51.444;-2.018;2023-01-19T11:51:45;4.97;;;2.83;;
43435;SDS011;36399;51.444;-2.018;2023-01-19T11:54:22;6.72;;;2.35;;
43435;SDS011;36399;51.444;-2.018;2023-01-19T11:56:54;4.78;;;2.92;;
43435;SDS011;36399;51.444;-2.018;2023-01-19T11:59:23;5.03;;;2.60;;
43435;SDS011;36399;51.444;-2.018;2023-01-19T12:01:53;6.65;;;2.20;;
43435;SDS011;36399;51.444;-2.018;2023-01-19T12:04:43;6.72;;;2.60;;
43435;SDS011;36399;51.444;-2.018;2023-01-19T12:07:09;7.38;;;2.40;;
43435;SDS011;36399;51.444;-2.018;2023-01-19T12:09:44;7.18;;;2.95;;
43435;SDS011;36399;51.444;-2.018;2023-01-19T12:12:31;4.38;;;2.33;;
43435;SDS011;36399;51.444;-2.018;2023-01-19T12:17:48;6.13;;;3.17;;
43435;SDS011;36399;51.444;-2.018;2023-01-19T12:28:16;6.95;;;3.15;;
43435;SDS011;36399;51.444;-2.018;2023-01-19T12:30:53;6.78;;;2.70;;
43435;SDS011;36399;51.444;-2.018;2023-01-19T12:39:00;9.95;;;3.20;;
43435;SDS011;36399;51.444;-2.018;2023-01-19T12:41:30;7.35;;;2.92;;
43435;SDS011;36399;51.444;-2.018;2023-01-19T12:54:39;5.75;;;2.78;;
43435;SDS011;36399;51.444;-2.018;2023-01-19T12:57:14;12.38;;;3.30;;
43435;SDS011;36399;51.444;-2.018;2023-01-19T12:59:45;6.45;;;2.30;;
43435;SDS011;36399;51.444;-2.018;2023-01-19T13:15:50;5.18;;;2.05;;
43435;SDS011;36399;51.444;-2.018;2023-01-19T13:18:17;4.03;;;1.50;;
43435;SDS011;36399;51.444;-2.018;2023-01-19T13:20:50;7.37;;;1.83;;
43435;SDS011;36399;51.444;-2.018;2023-01-19T13:23:23;4.27;;;1.73;;
43435;SDS011;36399;51.444;-2.018;2023-01-19T13:25:58;3.93;;;1.40;;
43435;SDS011;36399;51.444;-2.018;2023-01-19T13:28:32;3.30;;;1.30;;
43435;SDS011;36399;51.444;-2.018;2023-01-19T13:31:03;3.97;;;1.50;;
43435;SDS011;36399;51.444;-2.018;2023-01-19T13:33:34;6.67;;;1.97;;
43435;SDS011;36399;51.444;-2.018;2023-01-19T13:36:13;4.30;;;1.37;;
43435;SDS011;36399;51.444;-2.018;2023-01-19T13:38:44;4.10;;;1.47;;
43435;SDS011;36399;51.444;-2.018;2023-01-19T13:41:13;4.90;;;1.73;;
43435;SDS011;36399;51.444;-2.018;2023-01-19T13:43:41;3.60;;;1.87;;
43435;SDS011;36399;51.444;-2.018;2023-01-19T13:46:09;4.60;;;1.40;;
43435;SDS011;36399;51.444;-2.018;2023-01-19T13:48:37;3.63;;;1.77;;
43435;SDS011;36399;51.444;-2.018;2023-01-19T13:51:16;3.63;;;1.77;;
43435;SDS011;36399;51.444;-2.018;2023-01-19T13:53:56;6.27;;;1.60;;
43435;SDS011;36399;51.444;-2.018;2023-01-19T13:56:23;7.37;;;1.80;;
43435;SDS011;36399;51.444;-2.018;2023-01-19T13:59:03;4.13;;;1.87;;
43435;SDS011;36399;51.444;-2.018;2023-01-19T14:01:34;4.40;;;1.90;;
43435;SDS011;36399;51.444;-2.018;2023-01-19T14:04:02;4.03;;;1.50;;
43435;SDS011;36399;51.444;-2.018;2023-01-19T14:09:14;5.03;;;1.80;;
43435;SDS011;36399;51.444;-2.018;2023-01-19T14:11:43;4.27;;;1.93;;
43435;SDS011;36399;51.444;-2.018;2023-01-19T14:14:32;3.67;;;1.87;;
43435;SDS011;36399;51.444;-2.018;2023-01-19T14:16:58;6.03;;;1.80;;
43435;SDS011;36399;51.444;-2.018;2023-01-19T14:19:24;6.40;;;1.70;;
43435;SDS011;36399;51.444;-2.018;2023-01-19T14:22:00;4.17;;;1.47;;
43435;SDS011;36399;51.444;-2.018;2023-01-19T14:24:28;4.03;;;1.70;;
43435;SDS011;36399;51.444;-2.018;2023-01-19T14:29:47;4.63;;;1.40;;
43435;SDS011;36399;51.444;-2.018;2023-01-19T14:32:16;3.40;;;1.30;;
43435;SDS011;36399;51.444;-2.018;2023-01-19T14:37:14;4.60;;;1.50;;
43435;SDS011;36399;51.444;-2.018;2023-01-19T14:39:53;5.27;;;1.47;;
43435;SDS011;36399;51.444;-2.018;2023-01-19T14:45:00;5.03;;;1.63;;
43435;SDS011;36399;51.444;-2.018;2023-01-19T14:47:32;5.17;;;1.43;;
43435;SDS011;36399;51.444;-2.018;2023-01-19T14:50:05;4.90;;;1.50;;
43435;SDS011;36399;51.444;-2.018;2023-01-19T14:52:46;3.03;;;0.90;;
43435;SDS011;36399;51.444;-2.018;2023-01-19T14:55:18;2.85;;;1.02;;
43435;SDS011;36399;51.444;-2.018;2023-01-19T14:57:46;2.97;;;1.10;;
43435;SDS011;36399;51.444;-2.018;2023-01-19T15:00:13;4.70;;;1.30;;
43435;SDS011;36399;51.444;-2.018;2023-01-19T15:02:45;3.27;;;0.87;;
43435;SDS011;36399;51.444;-2.018;2023-01-19T15:05:12;2.30;;;0.97;;
43435;SDS011;36399;51.444;-2.018;2023-01-19T15:07:39;2.83;;;1.10;;
43435;SDS011;36399;51.444;-2.018;2023-01-19T15:10:24;5.57;;;1.07;;
43435;SDS011;36399;51.444;-2.018;2023-01-19T15:12:51;1.70;;;0.80;;
43435;SDS011;36399;51.444;-2.018;2023-01-19T15:15:20;7.37;;;1.43;;
43435;SDS011;36399;51.444;-2.018;2023-01-19T15:17:58;6.10;;;1.20;;
43435;SDS011;36399;51.444;-2.018;2023-01-19T15:20:27;5.73;;;1.10;;
43435;SDS011;36399;51.444;-2.018;2023-01-19T15:22:53;5.87;;;1.47;;
43435;SDS011;36399;51.444;-2.018;2023-01-19T15:25:20;5.30;;;1.57;;
43435;SDS011;36399;51.444;-2.018;2023-01-19T15:27:50;3.60;;;1.00;;
43435;SDS011;36399;51.444;-2.018;2023-01-19T15:30:18;3.63;;;1.10;;
43435;SDS011;36399;51.444;-2.018;2023-01-19T15:32:47;4.57;;;1.03;;
43435;SDS011;36399;51.444;-2.018;2023-01-19T15:35:17;5.43;;;1.20;;
43435;SDS011;36399;51.444;-2.018;2023-01-19T15:37:45;6.70;;;1.70;;
43435;SDS011;36399;51.444;-2.018;2023-01-19T15:40:11;3.57;;;1.43;;
43435;SDS011;36399;51.444;-2.018;2023-01-19T15:42:38;4.03;;;1.27;;
43435;SDS011;36399;51.444;-2.018;2023-01-19T15:48:00;6.27;;;1.63;;
43435;SDS011;36399;51.444;-2.018;2023-01-19T15:50:28;4.07;;;1.97;;
43435;SDS011;36399;51.444;-2.018;2023-01-19T15:52:54;8.50;;;2.53;;
43435;SDS011;36399;51.444;-2.018;2023-01-19T15:55:20;6.07;;;2.17;;
43435;SDS011;36399;51.444;-2.018;2023-01-19T15:57:47;9.70;;;3.03;;
43435;SDS011;36399;51.444;-2.018;2023-01-19T16:00:13;7.23;;;2.73;;
43435;SDS011;36399;51.444;-2.018;2023-01-19T16:02:40;7.77;;;2.53;;
43435;SDS011;36399;51.444;-2.018;2023-01-19T16:05:06;9.93;;;4.03;;
43435;SDS011;36399;51.444;-2.018;2023-01-19T16:07:32;10.43;;;3.63;;
43435;SDS011;36399;51.444;-2.018;2023-01-19T16:09:59;8.90;;;3.07;;
43435;SDS011;36399;51.444;-2.018;2023-01-19T16:12:25;9.00;;;2.90;;
43435;SDS011;36399;51.444;-2.018;2023-01-19T16:14:53;10.60;;;3.27;;
43435;SDS011;36399;51.444;-2.018;2023-01-19T16:17:19;7.57;;;3.30;;
43435;SDS011;36399;51.444;-2.018;2023-01-19T16:19:45;8.97;;;3.40;;
43435;SDS011;36399;51.444;-2.018;2023-01-19T16:22:12;6.80;;;2.47;;